createdAt,value
2022-10-02T00:01:02.405Z,92.6
2022-10-02T00:02:04.926Z,92.7
2022-10-02T00:03:08.547Z,92.7
2022-10-02T00:04:11.803Z,92.6
2022-10-02T00:05:15.348Z,92.4
2022-10-02T00:06:18.709Z,92.4
2022-10-02T00:07:21.583Z,92.3
2022-10-02T00:08:25.877Z,92.2
2022-10-02T00:09:28.129Z,92.2
2022-10-02T00:10:31.237Z,92
2022-10-02T00:11:33.880Z,92.4
2022-10-02T00:12:36.120Z,92.6
2022-10-02T00:13:39.591Z,92.3
2022-10-02T00:14:43.632Z,92.1
2022-10-02T00:15:46.448Z,92
2022-10-02T00:16:49.912Z,92
2022-10-02T00:17:52.817Z,92.3
2022-10-02T00:18:56.163Z,92.4
2022-10-02T00:19:59.140Z,92.6
2022-10-02T00:21:02.852Z,92.6
2022-10-02T00:22:06.028Z,92.4
2022-10-02T00:23:08.577Z,92.3
2022-10-02T00:24:12.049Z,92.2
2022-10-02T00:25:14.876Z,92.1
2022-10-02T00:26:17.760Z,92
2022-10-02T00:27:21.504Z,91.8
2022-10-02T00:28:24.610Z,91.7
2022-10-02T00:29:28.807Z,91.9
2022-10-02T00:30:32.094Z,92.2
2022-10-02T00:31:34.748Z,92.4
2022-10-02T00:32:38.142Z,92.3
2022-10-02T00:33:41.028Z,92.1
2022-10-02T00:34:43.456Z,92
2022-10-02T00:35:46.177Z,92
2022-10-02T00:36:49.382Z,91.9
2022-10-02T00:37:52.119Z,91.8
2022-10-02T00:38:55.474Z,92.2
2022-10-02T00:39:58.333Z,92.4
2022-10-02T00:41:01.072Z,92.2
2022-10-02T00:42:03.762Z,92.4
2022-10-02T00:43:07.131Z,92.2
2022-10-02T00:44:10.311Z,92.6
2022-10-02T00:45:13.847Z,92.6
2022-10-02T00:46:17.261Z,92.9
2022-10-02T00:47:20.159Z,92.6
2022-10-02T00:48:23.316Z,92.8
2022-10-02T00:49:26.693Z,92.8
2022-10-02T00:50:29.930Z,92.7
2022-10-02T00:51:33.468Z,92.7
2022-10-02T00:52:37.235Z,92.5
2022-10-02T00:53:39.877Z,92.6
2022-10-02T00:54:43.618Z,92.6
2022-10-02T00:55:46.903Z,92.7
2022-10-02T00:56:50.246Z,92.6
2022-10-02T00:57:53.318Z,92.5
2022-10-02T00:58:56.314Z,92.6
2022-10-02T00:59:59.744Z,92.6
2022-10-02T01:01:03.336Z,92.7
2022-10-02T01:02:06.320Z,92.6
2022-10-02T01:03:09.935Z,92.7
2022-10-02T01:04:12.906Z,92.4
2022-10-02T01:05:15.498Z,92.5
2022-10-02T01:06:18.486Z,92.4
2022-10-02T01:07:21.190Z,92.3
2022-10-02T01:08:24.609Z,92.4
2022-10-02T01:09:27.069Z,92.5
2022-10-02T01:10:30.150Z,92.6
2022-10-02T01:11:34.191Z,92.6
2022-10-02T01:12:37.182Z,92.6
2022-10-02T01:13:40.601Z,92.5
2022-10-02T01:14:43.564Z,92.4
2022-10-02T01:15:47.019Z,92.4
2022-10-02T01:16:49.868Z,92.6
2022-10-02T01:17:53.070Z,92.4
2022-10-02T01:18:56.805Z,92.5
2022-10-02T01:19:59.880Z,92.4
2022-10-02T01:21:03.372Z,92.5
2022-10-02T01:22:06.451Z,92.4
2022-10-02T01:23:08.774Z,92.3
2022-10-02T01:24:11.905Z,92.3
2022-10-02T01:25:15.058Z,92.5
2022-10-02T01:26:17.911Z,92.5
2022-10-02T01:27:21.344Z,92.5
2022-10-02T01:28:25.274Z,92.6
2022-10-02T01:29:28.290Z,92.7
2022-10-02T01:30:31.663Z,92.5
2022-10-02T01:31:35.094Z,92.7
2022-10-02T01:32:38.100Z,92.4
2022-10-02T01:33:40.605Z,92.7
2022-10-02T01:34:43.753Z,93
2022-10-02T01:35:47.150Z,93
2022-10-02T01:36:50.876Z,93
2022-10-02T01:37:53.218Z,92.8
2022-10-02T01:38:55.386Z,92.8
2022-10-02T01:39:58.843Z,92.8
2022-10-02T01:41:02.315Z,92.9
2022-10-02T01:42:05.112Z,93
2022-10-02T01:43:09.225Z,93.1
2022-10-02T01:44:12.401Z,93.1
2022-10-02T01:45:14.649Z,93
2022-10-02T01:46:18.131Z,93
2022-10-02T01:47:21.566Z,93
2022-10-02T01:48:23.993Z,93
2022-10-02T01:49:26.490Z,92.9
2022-10-02T01:50:29.823Z,93.1
2022-10-02T01:51:32.636Z,93.2
2022-10-02T01:52:36.093Z,93.1
2022-10-02T01:53:39.163Z,93.2
2022-10-02T01:54:42.504Z,93.2
2022-10-02T01:55:45.717Z,93.1
2022-10-02T01:56:48.901Z,93
2022-10-02T01:57:52.907Z,93
2022-10-02T01:58:56.670Z,92.6
2022-10-02T01:59:59.543Z,92.7
2022-10-02T02:01:02.967Z,92.7
2022-10-02T02:02:06.933Z,92.9
2022-10-02T02:03:09.839Z,93.1
2022-10-02T02:04:13.021Z,93.1
2022-10-02T02:05:16.177Z,93.1
2022-10-02T02:06:19.903Z,93.3
2022-10-02T02:07:23.622Z,93.1
2022-10-02T02:08:27.042Z,92.9
2022-10-02T02:09:30.197Z,92.8
2022-10-02T02:10:33.260Z,92.9
2022-10-02T02:11:36.683Z,92.9
2022-10-02T02:12:39.791Z,93
2022-10-02T02:13:42.582Z,93
2022-10-02T02:14:46.029Z,93
2022-10-02T02:15:48.541Z,92.9
2022-10-02T02:16:51.070Z,92.9
2022-10-02T02:17:54.717Z,93
2022-10-02T02:18:57.859Z,93
2022-10-02T02:20:01.212Z,93
2022-10-02T02:21:04.633Z,93
2022-10-02T02:22:07.899Z,93
2022-10-02T02:23:10.696Z,93.2
2022-10-02T02:24:13.759Z,93.2
2022-10-02T02:25:17.036Z,93.1
2022-10-02T02:26:20.826Z,93.2
2022-10-02T02:27:24.855Z,93.3
2022-10-02T02:28:28.211Z,93.4
2022-10-02T02:29:31.013Z,93.5
2022-10-02T02:30:33.940Z,93.4
2022-10-02T02:31:37.291Z,93.3
2022-10-02T02:32:40.554Z,93.2
2022-10-02T02:33:43.448Z,93.1
2022-10-02T02:34:46.328Z,93.1
2022-10-02T02:35:50.059Z,93.1
2022-10-02T02:36:52.506Z,93.2
2022-10-02T02:37:55.500Z,92.9
2022-10-02T02:38:57.898Z,92.7
2022-10-02T02:40:01.052Z,92.7
2022-10-02T02:41:03.862Z,92.6
2022-10-02T02:42:06.388Z,92.6
2022-10-02T02:43:10.252Z,92.7
2022-10-02T02:44:13.454Z,92.8
2022-10-02T02:45:16.884Z,92.8
2022-10-02T02:46:20.279Z,92.7
2022-10-02T02:47:24.050Z,92.5
2022-10-02T02:48:27.485Z,92.8
2022-10-02T02:49:30.936Z,92.9
2022-10-02T02:50:34.091Z,92.7
2022-10-02T02:51:37.366Z,93.1
2022-10-02T02:52:39.881Z,93.2
2022-10-02T02:53:43.028Z,93.2
2022-10-02T02:54:46.479Z,93.3
2022-10-02T02:55:49.349Z,93
2022-10-02T02:56:52.691Z,92.9
2022-10-02T02:57:56.216Z,93.1
2022-10-02T02:58:59.645Z,93
2022-10-02T03:00:02.465Z,92.9
2022-10-02T03:01:05.799Z,92.8
2022-10-02T03:02:09.693Z,92.6
2022-10-02T03:03:12.973Z,92.7
2022-10-02T03:04:15.764Z,92.7
2022-10-02T03:05:18.857Z,92.8
2022-10-02T03:06:21.728Z,92.6
2022-10-02T03:07:25.075Z,92.6
2022-10-02T03:08:27.483Z,92.6
2022-10-02T03:09:29.918Z,92.7
2022-10-02T03:10:32.442Z,92.9
2022-10-02T03:11:35.802Z,92.8
2022-10-02T03:12:38.687Z,92.9
2022-10-02T03:13:41.290Z,92.9
2022-10-02T03:14:44.717Z,92.9
2022-10-02T03:15:48.196Z,92.7
2022-10-02T03:16:51.666Z,92.6
2022-10-02T03:17:54.063Z,92.7
2022-10-02T03:18:56.773Z,92.5
2022-10-02T03:19:59.868Z,92.5
2022-10-02T03:21:02.962Z,92.5
2022-10-02T03:22:05.837Z,92.5
2022-10-02T03:23:10.973Z,92.5
2022-10-02T03:24:14.131Z,92.3
2022-10-02T03:25:16.997Z,92.4
2022-10-02T03:26:19.516Z,92.6
2022-10-02T03:27:22.383Z,92.4
2022-10-02T03:28:57.907Z,92.7
2022-10-02T03:30:01.824Z,92.5
2022-10-02T03:31:04.552Z,92.4
2022-10-02T03:32:07.823Z,92.2
2022-10-02T03:33:11.669Z,92.2
2022-10-02T03:34:14.265Z,92.1
2022-10-02T03:35:17.835Z,92.1
2022-10-02T03:36:21.311Z,92.2
2022-10-02T03:37:24.377Z,92.6
2022-10-02T03:38:27.519Z,92.6
2022-10-02T03:39:30.912Z,92.6
2022-10-02T03:40:33.440Z,92.7
2022-10-02T03:41:36.503Z,92.7
2022-10-02T03:42:39.218Z,92.7
2022-10-02T03:43:42.676Z,92.5
2022-10-02T03:44:44.919Z,92.4
2022-10-02T03:45:53.203Z,92.4
2022-10-02T03:46:56.894Z,92.3
2022-10-02T03:48:00.230Z,92.5
2022-10-02T03:49:03.724Z,92.3
2022-10-02T03:50:07.134Z,92.4
2022-10-02T03:51:09.854Z,92.5
2022-10-02T03:52:12.673Z,92.3
2022-10-02T03:53:15.556Z,92.3
2022-10-02T03:54:18.354Z,92.3
2022-10-02T03:55:21.235Z,92.5
2022-10-02T03:56:24.308Z,92.6
2022-10-02T03:57:27.170Z,92.5
2022-10-02T03:58:29.995Z,92.6
2022-10-02T03:59:32.865Z,92.5
2022-10-02T04:00:35.312Z,92.6
2022-10-02T04:01:39.087Z,92.6
2022-10-02T04:02:42.053Z,92.7
2022-10-02T04:03:45.718Z,92.7
2022-10-02T04:04:49.936Z,92.5
2022-10-02T04:05:52.727Z,92.4
2022-10-02T04:06:55.331Z,92.6
2022-10-02T04:07:58.452Z,92.3
2022-10-02T04:09:01.126Z,92.3
2022-10-02T04:10:04.836Z,92.4
2022-10-02T04:11:08.178Z,92.4
2022-10-02T04:12:11.321Z,92.4
2022-10-02T04:13:14.753Z,92.4
2022-10-02T04:14:17.646Z,92.5
2022-10-02T04:15:20.259Z,92.7
2022-10-02T04:16:23.722Z,92.6
2022-10-02T04:17:27.007Z,92.5
2022-10-02T04:18:30.681Z,92.3
2022-10-02T04:19:33.292Z,92.5
2022-10-02T04:20:36.849Z,92.4
2022-10-02T04:21:40.268Z,92.4
2022-10-02T04:22:43.244Z,92.8
2022-10-02T04:23:46.691Z,92.7
2022-10-02T04:24:50.124Z,92.3
2022-10-02T04:25:53.280Z,92.3
2022-10-02T04:26:56.740Z,92.4
2022-10-02T04:27:59.678Z,92.5
2022-10-02T04:29:03.239Z,92.7
2022-10-02T04:30:06.034Z,92.4
2022-10-02T04:31:09.369Z,92.4
2022-10-02T04:32:12.376Z,92.3
2022-10-02T04:33:15.853Z,92.3
2022-10-02T04:34:18.859Z,92.3
2022-10-02T04:35:22.597Z,92.2
2022-10-02T04:36:25.347Z,92.1
2022-10-02T04:37:28.791Z,91.9
2022-10-02T04:38:32.236Z,92.3
2022-10-02T04:39:35.311Z,92.1
2022-10-02T04:40:38.577Z,92.1
2022-10-02T04:41:41.365Z,92.2
2022-10-02T04:42:45.096Z,92.3
2022-10-02T04:43:47.966Z,92.5
2022-10-02T04:44:51.469Z,92.6
2022-10-02T04:45:54.759Z,92.7
2022-10-02T04:46:57.463Z,92.5
2022-10-02T04:47:59.997Z,92.9
2022-10-02T04:49:03.692Z,92.9
2022-10-02T04:50:06.787Z,92.8
2022-10-02T04:51:10.235Z,92.8
2022-10-02T04:52:13.617Z,92.8
2022-10-02T04:53:16.167Z,92.7
2022-10-02T04:54:18.710Z,92.7
2022-10-02T04:55:22.354Z,92.6
2022-10-02T04:56:25.424Z,92.4
2022-10-02T04:57:28.420Z,92.3
2022-10-02T04:58:31.884Z,92.3
2022-10-02T04:59:34.159Z,92.3
2022-10-02T05:00:37.279Z,92.7
2022-10-02T05:01:40.423Z,92.6
2022-10-02T05:02:43.760Z,92.5
2022-10-02T05:03:46.912Z,92.4
2022-10-02T05:04:50.656Z,92.2
2022-10-02T05:05:54.108Z,92.3
2022-10-02T05:06:57.562Z,92.4
2022-10-02T05:08:00.751Z,92.8
2022-10-02T05:09:04.182Z,93
2022-10-02T05:10:07.057Z,92.9
2022-10-02T05:11:10.804Z,92.9
2022-10-02T05:12:14.073Z,93
2022-10-02T05:13:17.602Z,93
2022-10-02T05:14:21.034Z,93
2022-10-02T05:15:24.734Z,93.1
2022-10-02T05:16:28.083Z,93
2022-10-02T05:17:31.340Z,93
2022-10-02T05:18:34.305Z,92.9
2022-10-02T05:19:37.481Z,93
2022-10-02T05:20:41.581Z,92.8
2022-10-02T05:21:44.940Z,92.8
2022-10-02T05:22:47.854Z,92.8
2022-10-02T05:23:50.143Z,92.9
2022-10-02T05:24:53.201Z,92.8
2022-10-02T05:25:55.677Z,92.9
2022-10-02T05:26:58.578Z,93
2022-10-02T05:28:02.004Z,93.2
2022-10-02T05:29:04.666Z,93
2022-10-02T05:30:07.748Z,93.1
2022-10-02T05:31:11.994Z,92.9
2022-10-02T05:32:14.702Z,92.5
2022-10-02T05:33:17.957Z,92.4
2022-10-02T05:34:20.477Z,92.5
2022-10-02T05:35:23.077Z,92.5
2022-10-02T05:36:26.577Z,92.5
2022-10-02T05:37:29.454Z,92.3
2022-10-02T05:38:32.124Z,92.5
2022-10-02T05:39:35.611Z,92.6
2022-10-02T05:40:39.101Z,92.6
2022-10-02T05:41:41.254Z,92.9
2022-10-02T05:42:44.761Z,92.9
2022-10-02T05:43:48.091Z,92.8
2022-10-02T05:44:50.694Z,92.8
2022-10-02T05:45:54.034Z,92.9
2022-10-02T05:46:56.548Z,92.9
2022-10-02T05:47:58.870Z,92.8
2022-10-02T05:49:01.738Z,92.7
2022-10-02T05:50:04.820Z,92.8
2022-10-02T05:51:08.189Z,92.9
2022-10-02T05:52:11.677Z,92.9
2022-10-02T05:53:14.796Z,93.1
2022-10-02T05:54:17.957Z,93
2022-10-02T05:55:20.933Z,93.1
2022-10-02T05:56:24.015Z,92.8
2022-10-02T05:57:27.455Z,92.6
2022-10-02T05:58:30.924Z,92.8
2022-10-02T05:59:33.809Z,92.8
2022-10-02T06:00:37.165Z,92.7
2022-10-02T06:01:41.133Z,92.7
2022-10-02T06:02:44.243Z,92.5
2022-10-02T06:03:47.412Z,92.3
2022-10-02T06:04:50.131Z,92.3
2022-10-02T06:05:52.659Z,92.4
2022-10-02T06:06:56.014Z,92.3
2022-10-02T06:07:59.798Z,92.3
2022-10-02T06:09:02.833Z,92.4
2022-10-02T06:10:06.574Z,92.4
2022-10-02T06:11:09.566Z,92.3
2022-10-02T06:12:12.549Z,92.5
2022-10-02T06:13:15.637Z,92.6
2022-10-02T06:14:18.816Z,92.6
2022-10-02T06:15:21.413Z,92.8
2022-10-02T06:16:24.145Z,92.6
2022-10-02T06:17:27.266Z,92.5
2022-10-02T06:18:30.344Z,92.6
2022-10-02T06:19:33.149Z,92.7
2022-10-02T06:20:36.883Z,92.5
2022-10-02T06:21:40.543Z,92.5
2022-10-02T06:22:44.184Z,92.6
2022-10-02T06:23:47.494Z,92.5
2022-10-02T06:24:50.667Z,92.4
2022-10-02T06:25:53.761Z,92.5
2022-10-02T06:26:56.684Z,92.4
2022-10-02T06:27:59.809Z,92.7
2022-10-02T06:29:03.207Z,92.8
2022-10-02T06:30:06.351Z,92.6
2022-10-02T06:31:08.861Z,92.6
2022-10-02T06:32:11.719Z,92.5
2022-10-02T06:33:14.900Z,92.4
2022-10-02T06:34:18.634Z,92.3
2022-10-02T06:35:22.179Z,92.2
2022-10-02T06:36:25.462Z,92.1
2022-10-02T06:37:28.911Z,92.4
2022-10-02T06:38:31.733Z,92.5
2022-10-02T06:39:35.159Z,92.4
2022-10-02T06:40:38.283Z,92.4
2022-10-02T06:41:41.475Z,92.3
2022-10-02T06:42:45.169Z,92
2022-10-02T06:43:48.627Z,91.9
2022-10-02T06:44:51.698Z,92.5
2022-10-02T06:45:55.812Z,92.6
2022-10-02T06:46:58.957Z,92.7
2022-10-02T06:48:02.315Z,92.4
2022-10-02T06:49:05.393Z,92.4
2022-10-02T06:50:08.652Z,92.2
2022-10-02T06:51:11.463Z,92.3
2022-10-02T06:52:14.991Z,92.5
2022-10-02T06:53:17.514Z,92.8
2022-10-02T06:54:20.893Z,92.8
2022-10-02T06:55:24.190Z,92.9
2022-10-02T06:56:27.580Z,92.8
2022-10-02T06:57:31.103Z,92.4
2022-10-02T06:58:33.942Z,92.4
2022-10-02T06:59:36.471Z,92.3
2022-10-02T07:00:39.967Z,92.3
2022-10-02T07:01:44.588Z,92
2022-10-02T07:02:47.586Z,92
2022-10-02T07:03:50.196Z,91.8
2022-10-02T07:04:53.022Z,91.5
2022-10-02T07:05:55.272Z,91.3
2022-10-02T07:06:58.579Z,91.3
2022-10-02T07:08:01.924Z,91.2
2022-10-02T07:09:04.662Z,91.4
2022-10-02T07:10:07.383Z,91.6
2022-10-02T07:11:10.952Z,91.6
2022-10-02T07:12:14.057Z,91.5
2022-10-02T07:13:17.415Z,91.5
2022-10-02T07:14:20.917Z,91.5
2022-10-02T07:15:24.028Z,91.6
2022-10-02T07:16:26.776Z,91.8
2022-10-02T07:17:30.404Z,92.1
2022-10-02T07:18:32.848Z,92.1
2022-10-02T07:19:36.216Z,92.2
2022-10-02T07:20:39.019Z,92
2022-10-02T07:21:41.845Z,91.9
2022-10-02T07:22:47.343Z,92
2022-10-02T07:23:50.609Z,91.9
2022-10-02T07:24:53.707Z,91.8
2022-10-02T07:25:56.501Z,92.4
2022-10-02T07:27:00.008Z,92.2
2022-10-02T07:28:03.102Z,92.1
2022-10-02T07:29:06.383Z,91.7
2022-10-02T07:30:09.505Z,91.7
2022-10-02T07:31:12.349Z,91.7
2022-10-02T07:32:15.661Z,92
2022-10-02T07:33:18.931Z,91.9
2022-10-02T07:34:22.277Z,92
2022-10-02T07:35:25.279Z,91.8
2022-10-02T07:36:28.349Z,92
2022-10-02T07:37:31.886Z,91.7
2022-10-02T07:38:34.963Z,91.4
2022-10-02T07:39:37.852Z,91.6
2022-10-02T07:40:40.456Z,91.7
2022-10-02T07:41:43.637Z,91.6
2022-10-02T07:42:46.239Z,91.2
2022-10-02T07:43:49.847Z,91.4
2022-10-02T07:44:52.376Z,91.4
2022-10-02T07:45:56.302Z,91.4
2022-10-02T07:46:59.953Z,91.6
2022-10-02T07:48:02.088Z,91.9
2022-10-02T07:49:04.661Z,92.2
2022-10-02T07:50:07.281Z,92.5
2022-10-02T07:51:09.969Z,92.6
2022-10-02T07:52:12.963Z,92.5
2022-10-02T07:53:16.340Z,92.3
2022-10-02T07:54:19.851Z,92.5
2022-10-02T07:55:23.854Z,92.3
2022-10-02T07:56:26.963Z,92.2
2022-10-02T07:57:30.076Z,92.1
2022-10-02T07:58:33.852Z,92
2022-10-02T07:59:36.759Z,91.9
2022-10-02T08:00:39.403Z,92
2022-10-02T08:01:42.259Z,91.8
2022-10-02T08:02:45.041Z,91.6
2022-10-02T08:03:47.649Z,91.9
2022-10-02T08:04:50.190Z,91.9
2022-10-02T08:05:53.368Z,91.8
2022-10-02T08:06:56.431Z,91.6
2022-10-02T08:07:59.665Z,91.5
2022-10-02T08:09:02.753Z,91.5
2022-10-02T08:10:05.915Z,91.3
2022-10-02T08:11:08.798Z,91.4
2022-10-02T08:12:11.614Z,91.4
2022-10-02T08:13:14.417Z,91.6
2022-10-02T08:14:18.167Z,91.8
2022-10-02T08:15:21.011Z,92
2022-10-02T08:16:25.083Z,91.8
2022-10-02T08:17:29.100Z,91.7
2022-10-02T08:18:37.014Z,91.5
2022-10-02T08:19:40.483Z,91.2
2022-10-02T08:20:44.219Z,91.3
2022-10-02T08:21:46.620Z,91.5
2022-10-02T08:22:49.986Z,91.3
2022-10-02T08:23:52.422Z,91.6
2022-10-02T08:24:55.440Z,91.4
2022-10-02T08:25:58.254Z,91.3
2022-10-02T08:27:01.536Z,90.9
2022-10-02T08:28:04.616Z,90.9
2022-10-02T08:29:08.493Z,91
2022-10-02T08:30:12.478Z,90.8
2022-10-02T08:31:15.145Z,90.7
2022-10-02T08:32:18.244Z,90.6
2022-10-02T08:33:21.156Z,90.3
2022-10-02T08:34:24.619Z,90
2022-10-02T08:35:27.768Z,90.3
2022-10-02T08:36:30.583Z,90.6
2022-10-02T08:37:33.687Z,90.1
2022-10-02T08:38:37.140Z,90.1
2022-10-02T08:39:39.861Z,89.9
2022-10-02T08:40:43.687Z,90.1
2022-10-02T08:41:47.227Z,90
2022-10-02T08:42:50.301Z,89.8
2022-10-02T08:43:54.122Z,89.5
2022-10-02T08:44:57.200Z,89.3
2022-10-02T08:46:00.683Z,89.1
2022-10-02T08:47:04.533Z,89.4
2022-10-02T08:48:07.983Z,89.2
2022-10-02T08:49:10.551Z,89.1
2022-10-02T08:50:13.355Z,88.3
2022-10-02T08:51:16.814Z,87.8
2022-10-02T08:52:19.819Z,86.5
2022-10-02T08:53:23.147Z,87.1
2022-10-02T08:54:25.754Z,87.7
2022-10-02T08:55:29.203Z,87.3
2022-10-02T08:56:32.567Z,86.2
2022-10-02T08:57:35.141Z,85.9
2022-10-02T08:58:38.320Z,85.6
2022-10-02T08:59:41.777Z,85.3
2022-10-02T09:00:44.765Z,85.4
2022-10-02T09:01:48.302Z,85.1
2022-10-02T09:02:51.414Z,84.1
2022-10-02T09:03:54.214Z,84.9
2022-10-02T09:04:58.196Z,84.5
2022-10-02T09:06:00.994Z,84.7
2022-10-02T09:07:03.527Z,84.7
2022-10-02T09:08:06.995Z,84.3
2022-10-02T09:09:09.875Z,82.6
2022-10-02T09:10:12.683Z,83
2022-10-02T09:11:16.046Z,83
2022-10-02T09:12:18.763Z,81.7
2022-10-02T09:13:21.573Z,82.8
2022-10-02T09:14:24.475Z,83.6
2022-10-02T09:15:27.999Z,83.6
2022-10-02T09:16:31.303Z,82.4
2022-10-02T09:17:35.637Z,82.2
2022-10-02T09:18:38.373Z,83
2022-10-02T09:19:41.262Z,83.8
2022-10-02T09:20:44.745Z,83.5
2022-10-02T09:21:48.204Z,83.5
2022-10-02T09:22:51.027Z,84.6
2022-10-02T09:23:54.504Z,84.4
2022-10-02T09:24:57.660Z,83.7
2022-10-02T09:26:01.292Z,83.1
2022-10-02T09:27:04.170Z,83.3
2022-10-02T09:28:07.730Z,82.4
2022-10-02T09:29:11.015Z,82.2
2022-10-02T09:30:14.302Z,81.5
2022-10-02T09:31:17.826Z,81.6
2022-10-02T09:32:21.525Z,80.5
2022-10-02T09:33:25.151Z,80.9
2022-10-02T09:34:28.672Z,81.3
2022-10-02T09:35:31.907Z,81.4
2022-10-02T09:36:37.022Z,81.5
2022-10-02T09:37:41.317Z,81.8
2022-10-02T09:38:44.475Z,82.6
2022-10-02T09:39:47.452Z,81.3
2022-10-02T09:40:49.977Z,81.5
2022-10-02T09:41:52.935Z,81.8
2022-10-02T09:42:55.465Z,82
2022-10-02T09:43:58.923Z,81.6
2022-10-02T09:45:03.224Z,82.3
2022-10-02T09:46:06.421Z,81.7
2022-10-02T09:47:09.870Z,81
2022-10-02T09:48:12.878Z,81.6
2022-10-02T09:49:16.677Z,80.7
2022-10-02T09:50:19.572Z,80.5
2022-10-02T09:51:22.760Z,79.2
2022-10-02T09:52:25.599Z,77.3
2022-10-02T09:53:29.327Z,77.4
2022-10-02T09:54:32.481Z,76.7
2022-10-02T09:55:35.678Z,76.7
2022-10-02T09:56:39.864Z,75.9
2022-10-02T09:57:43.596Z,76
2022-10-02T09:58:46.676Z,75.9
2022-10-02T09:59:49.946Z,75.7
2022-10-02T10:00:53.127Z,75.3
2022-10-02T10:01:56.942Z,75.5
2022-10-02T10:03:00.733Z,76.5
2022-10-02T10:04:04.486Z,76.1
2022-10-02T10:05:08.573Z,75
2022-10-02T10:06:11.602Z,74.8
2022-10-02T10:07:20.133Z,72.7
2022-10-02T10:08:23.362Z,72.9
2022-10-02T10:09:26.174Z,72.5
2022-10-02T10:10:28.722Z,73.6
2022-10-02T10:11:31.822Z,71.1
2022-10-02T10:12:34.989Z,71.2
2022-10-02T10:13:37.900Z,72.5
2022-10-02T10:14:40.984Z,72.1
2022-10-02T10:15:44.071Z,71.1
2022-10-02T10:16:47.801Z,69.9
2022-10-02T10:17:52.112Z,70.6
2022-10-02T10:18:55.112Z,69.6
2022-10-02T10:19:57.547Z,70
2022-10-02T10:21:01.056Z,70.9
2022-10-02T10:22:03.685Z,72
2022-10-02T10:23:07.399Z,70.7
2022-10-02T10:24:10.549Z,72.6
2022-10-02T10:25:13.697Z,71.3
2022-10-02T10:26:16.422Z,71.5
2022-10-02T10:27:19.245Z,74.2
2022-10-02T10:28:22.348Z,74.5
2022-10-02T10:29:25.580Z,74.3
2022-10-02T10:30:28.387Z,73
2022-10-02T10:31:31.130Z,73.1
2022-10-02T10:32:34.934Z,73.1
2022-10-02T10:33:38.302Z,72.9
2022-10-02T10:34:41.193Z,73.6
2022-10-02T10:35:44.082Z,74
2022-10-02T10:36:48.337Z,73.9
2022-10-02T10:37:51.075Z,72.4
2022-10-02T10:38:54.439Z,71.2
2022-10-02T10:39:57.849Z,71
2022-10-02T10:41:01.066Z,68.5
2022-10-02T10:42:03.686Z,69.7
2022-10-02T10:43:16.982Z,68.9
2022-10-02T10:44:19.923Z,67
2022-10-02T10:45:23.001Z,68.2
2022-10-02T10:46:26.980Z,66.4
2022-10-02T10:47:29.308Z,66.2
2022-10-02T10:48:32.496Z,64.3
2022-10-02T10:49:35.678Z,65.2
2022-10-02T10:50:38.483Z,64.5
2022-10-02T10:51:40.983Z,66.8
2022-10-02T10:52:44.787Z,66.4
2022-10-02T10:53:47.793Z,65.7
2022-10-02T10:54:51.128Z,64.3
2022-10-02T10:55:53.712Z,65.1
2022-10-02T10:56:57.251Z,65.3
2022-10-02T10:57:59.784Z,63.2
2022-10-02T10:59:03.073Z,64.1
2022-10-02T11:00:05.647Z,63.4
2022-10-02T11:01:09.344Z,62.6
2022-10-02T11:02:12.748Z,61
2022-10-02T11:03:15.749Z,60.7
2022-10-02T11:04:18.922Z,60.9
2022-10-02T11:05:21.802Z,61.9
2022-10-02T11:06:25.239Z,63.2
2022-10-02T11:07:28.326Z,62.1
2022-10-02T11:08:32.155Z,62.6
2022-10-02T11:09:35.046Z,64.1
2022-10-02T11:10:37.857Z,65.8
2022-10-02T11:11:41.377Z,63.3
2022-10-02T11:12:44.841Z,62.4
2022-10-02T11:13:48.009Z,63.9
2022-10-02T11:14:51.577Z,64.5
2022-10-02T11:15:54.657Z,66.2
2022-10-02T11:16:58.099Z,65.9
2022-10-02T11:18:01.177Z,64.5
2022-10-02T11:19:04.889Z,65
2022-10-02T11:20:07.963Z,63.9
2022-10-02T11:21:11.238Z,64.1
2022-10-02T11:22:14.503Z,63.7
2022-10-02T11:23:16.740Z,62.7
2022-10-02T11:24:20.225Z,60.3
2022-10-02T11:25:23.315Z,63.6
2022-10-02T11:26:25.937Z,61.6
2022-10-02T11:27:29.541Z,60.7
2022-10-02T11:28:33.357Z,59.7
2022-10-02T11:29:36.821Z,60.5
2022-10-02T11:30:43.007Z,60.2
2022-10-02T11:31:45.794Z,60.4
2022-10-02T11:32:49.741Z,61.2
2022-10-02T11:33:52.699Z,62.1
2022-10-02T11:34:55.226Z,62.2
2022-10-02T11:35:58.771Z,60.5
2022-10-02T11:37:01.943Z,61.8
2022-10-02T11:38:05.731Z,61.1
2022-10-02T11:39:08.067Z,62.4
2022-10-02T11:40:11.608Z,62.1
2022-10-02T11:41:14.499Z,62.4
2022-10-02T11:42:18.247Z,63.9
2022-10-02T11:43:21.427Z,63.2
2022-10-02T11:44:23.963Z,65.7
2022-10-02T11:45:27.322Z,65.5
2022-10-02T11:46:30.629Z,63.9
2022-10-02T11:47:33.826Z,64.4
2022-10-02T11:48:37.269Z,62.8
2022-10-02T11:49:39.781Z,62.5
2022-10-02T11:50:42.031Z,62.2
2022-10-02T11:51:44.565Z,61.2
2022-10-02T11:52:49.654Z,61.8
2022-10-02T11:53:52.722Z,60.8
2022-10-02T11:54:55.506Z,59.6
2022-10-02T11:55:59.337Z,60
2022-10-02T11:57:02.854Z,60.4
2022-10-02T11:58:06.649Z,60.6
2022-10-02T11:59:09.848Z,60.4
2022-10-02T12:00:12.294Z,59.3
2022-10-02T12:01:15.117Z,59.1
2022-10-02T12:02:18.439Z,59.4
2022-10-02T12:03:22.313Z,57
2022-10-02T12:04:25.568Z,58.9
2022-10-02T12:05:28.595Z,60.2
2022-10-02T12:06:31.870Z,58.6
2022-10-02T12:07:35.328Z,58.2
2022-10-02T12:08:38.958Z,58.1
2022-10-02T12:09:41.686Z,58.1
2022-10-02T12:10:45.248Z,58.4
2022-10-02T12:11:48.215Z,57.7
2022-10-02T12:12:50.656Z,57
2022-10-02T12:13:54.406Z,56.7
2022-10-02T12:14:56.907Z,59.1
2022-10-02T12:16:00.109Z,56.3
2022-10-02T12:17:03.394Z,55.8
2022-10-02T12:18:06.493Z,56.3
2022-10-02T12:19:09.575Z,56.8
2022-10-02T12:20:12.761Z,56.3
2022-10-02T12:21:16.578Z,56.9
2022-10-02T12:22:19.026Z,56.1
2022-10-02T12:23:22.576Z,56.1
2022-10-02T12:24:26.207Z,52.4
2022-10-02T12:25:29.944Z,54.5
2022-10-02T12:26:33.021Z,55.1
2022-10-02T12:27:35.895Z,56
2022-10-02T12:28:39.090Z,56.4
2022-10-02T12:29:42.860Z,56.7
2022-10-02T12:30:46.953Z,56.4
2022-10-02T12:31:50.186Z,56.9
2022-10-02T12:32:53.510Z,59.2
2022-10-02T12:33:58.284Z,59.8
2022-10-02T12:35:01.753Z,58.3
2022-10-02T12:36:04.009Z,58.5
2022-10-02T12:37:07.114Z,58.3
2022-10-02T12:38:09.916Z,59.2
2022-10-02T12:39:12.814Z,58
2022-10-02T12:40:16.389Z,57.6
2022-10-02T12:41:18.856Z,59.8
2022-10-02T12:42:21.408Z,58.8
2022-10-02T12:43:25.094Z,59.5
2022-10-02T12:44:28.265Z,61.4
2022-10-02T12:45:31.652Z,60.1
2022-10-02T12:46:34.548Z,60.8
2022-10-02T12:47:37.921Z,61.9
2022-10-02T12:48:40.792Z,63.3
2022-10-02T12:49:43.361Z,64.4
2022-10-02T12:50:46.160Z,61.9
2022-10-02T12:51:48.421Z,61
2022-10-02T12:52:51.244Z,62
2022-10-02T12:53:53.970Z,60.2
2022-10-02T12:54:56.784Z,60
2022-10-02T12:56:00.248Z,60.1
2022-10-02T12:57:03.333Z,60.5
2022-10-02T12:58:06.790Z,59.7
2022-10-02T12:59:10.837Z,59.8
2022-10-02T13:00:13.909Z,60.1
2022-10-02T13:01:17.602Z,62.3
2022-10-02T13:02:26.400Z,61
2022-10-02T13:04:04.643Z,61.6
2022-10-02T13:05:07.837Z,61.1
2022-10-02T13:06:10.569Z,60.5
2022-10-02T13:07:13.582Z,61.3
2022-10-02T13:08:16.384Z,61.5
2022-10-02T13:09:19.544Z,60.1
2022-10-02T13:10:22.340Z,61.8
2022-10-02T13:11:25.788Z,61.8
2022-10-02T13:12:28.325Z,59.9
2022-10-02T13:13:30.299Z,58.7
2022-10-02T13:14:33.551Z,60.3
2022-10-02T13:15:36.465Z,58.2
2022-10-02T13:16:39.381Z,58.9
2022-10-02T13:17:42.399Z,57.9
2022-10-02T13:18:45.510Z,58
2022-10-02T13:19:48.794Z,57.9
2022-10-02T13:20:52.448Z,58.6
2022-10-02T13:21:54.701Z,59.3
2022-10-02T13:22:57.861Z,59.1
2022-10-02T13:24:00.581Z,59.2
2022-10-02T13:25:04.042Z,59.7
2022-10-02T13:26:06.783Z,58.1
2022-10-02T13:27:09.605Z,58.9
2022-10-02T13:28:13.168Z,59.2
2022-10-02T13:29:16.062Z,60.6
2022-10-02T13:30:19.913Z,59.1
2022-10-02T13:31:22.887Z,60.2
2022-10-02T13:32:26.687Z,60.2
2022-10-02T13:33:28.982Z,60.1
2022-10-02T13:34:39.308Z,59.5
2022-10-02T13:35:42.219Z,59.1
2022-10-02T13:36:45.237Z,59.2
2022-10-02T13:37:47.969Z,58.1
2022-10-02T13:38:50.569Z,59.1
2022-10-02T13:39:53.577Z,61.2
2022-10-02T13:40:56.645Z,60.4
2022-10-02T13:42:00.100Z,59.6
2022-10-02T13:43:02.982Z,59.1
2022-10-02T13:44:05.946Z,58.2
2022-10-02T13:45:09.032Z,58.2
2022-10-02T13:46:13.132Z,58.4
2022-10-02T13:47:16.395Z,60.7
2022-10-02T13:48:20.042Z,58.7
2022-10-02T13:49:22.970Z,58.5
2022-10-02T13:50:25.966Z,58.8
2022-10-02T13:51:29.081Z,59.3
2022-10-02T13:52:32.330Z,58.6
2022-10-02T13:53:34.865Z,59.4
2022-10-02T13:54:37.205Z,59.7
2022-10-02T13:55:40.395Z,59.5
2022-10-02T13:56:42.655Z,60.1
2022-10-02T13:57:46.092Z,59.4
2022-10-02T13:58:49.193Z,59.9
2022-10-02T13:59:52.638Z,59.1
2022-10-02T14:00:55.969Z,60
2022-10-02T14:01:59.640Z,61
2022-10-02T14:03:02.471Z,59.5
2022-10-02T14:04:06.154Z,59.4
2022-10-02T14:05:09.454Z,58.4
2022-10-02T14:06:12.348Z,59.3
2022-10-02T14:07:15.625Z,58.7
2022-10-02T14:08:18.451Z,60.7